createdAt,value
2023-02-04T00:00:18.278Z,11.94
2023-02-04T00:02:45.427Z,11.93
2023-02-04T00:05:13.790Z,11.92
2023-02-04T00:07:41.527Z,11.88
2023-02-04T00:10:10.204Z,11.82
2023-02-04T00:12:38.504Z,11.77
2023-02-04T00:15:06.265Z,11.71
2023-02-04T00:17:33.228Z,11.65
2023-02-04T00:20:00.183Z,11.60
2023-02-04T00:22:28.857Z,11.52
2023-02-04T00:24:55.875Z,11.46
2023-02-04T00:27:23.210Z,11.41
2023-02-04T00:29:51.465Z,11.35
2023-02-04T00:32:18.681Z,11.33
2023-02-04T00:34:45.664Z,11.33
2023-02-04T00:37:12.602Z,11.30
2023-02-04T00:39:39.564Z,11.29
2023-02-04T00:42:06.812Z,11.25
2023-02-04T00:44:33.906Z,11.21
2023-02-04T00:47:02.299Z,11.16
2023-02-04T00:49:29.177Z,11.12
2023-02-04T00:51:56.123Z,11.07
2023-02-04T00:54:23.022Z,11.04
2023-02-04T00:56:49.947Z,11.01
2023-02-04T00:59:16.886Z,10.99
2023-02-04T01:01:43.894Z,10.97
2023-02-04T01:04:12.124Z,10.96
2023-02-04T01:06:38.989Z,10.95
2023-02-04T01:09:06.323Z,10.94
2023-02-04T01:11:33.380Z,10.93
2023-02-04T01:14:00.432Z,10.89
2023-02-04T01:16:27.449Z,10.86
2023-02-04T01:18:55.845Z,10.85
2023-02-04T01:21:25.087Z,10.83
2023-02-04T01:23:52.509Z,10.81
2023-02-04T01:26:20.368Z,10.79
2023-02-04T01:28:47.606Z,10.77
2023-02-04T01:31:15.128Z,10.76
2023-02-04T01:33:42.508Z,10.72
2023-02-04T01:36:10.596Z,10.70
2023-02-04T01:38:38.850Z,10.68
2023-02-04T01:41:07.146Z,10.67
2023-02-04T01:43:34.940Z,10.65
2023-02-04T01:46:02.705Z,10.64
2023-02-04T01:48:30.303Z,10.63
2023-02-04T01:51:04.840Z,10.59
2023-02-04T01:53:33.372Z,10.56
2023-02-04T01:56:02.388Z,10.55
2023-02-04T01:58:32.208Z,10.53
2023-02-04T02:00:59.161Z,10.53
2023-02-04T02:03:26.071Z,10.53
2023-02-04T02:05:55.520Z,10.53
2023-02-04T02:08:22.440Z,10.51
2023-02-04T02:10:50.069Z,10.53
2023-02-04T02:13:19.680Z,10.55
2023-02-04T02:15:48.111Z,10.55
2023-02-04T02:18:16.006Z,10.54
2023-02-04T02:20:44.138Z,10.51
2023-02-04T02:23:22.789Z,10.46
2023-02-04T02:25:51.619Z,10.42
2023-02-04T02:28:22.691Z,10.37
2023-02-04T02:30:50.714Z,10.33
2023-02-04T02:33:21.121Z,10.30
2023-02-04T02:35:48.873Z,10.28
2023-02-04T02:38:18.627Z,10.27
2023-02-04T02:40:47.766Z,10.28
2023-02-04T02:43:20.591Z,10.28
2023-02-04T02:45:48.632Z,10.28
2023-02-04T02:48:15.764Z,10.26
2023-02-04T02:50:44.071Z,10.29
2023-02-04T02:53:13.604Z,10.28
2023-02-04T02:55:42.047Z,10.25
2023-02-04T02:58:18.134Z,10.20
2023-02-04T03:00:45.233Z,10.17
2023-02-04T03:03:18.117Z,10.12
2023-02-04T03:05:49.569Z,10.11
2023-02-04T03:08:16.922Z,10.13
2023-02-04T03:10:45.193Z,10.17
2023-02-04T03:13:14.912Z,10.18
2023-02-04T03:15:47.479Z,10.20
2023-02-04T03:18:19.152Z,10.20
2023-02-04T03:20:50.657Z,10.19
2023-02-04T03:23:18.859Z,10.17
2023-02-04T03:25:46.213Z,10.14
2023-02-04T03:28:13.254Z,10.12
2023-02-04T03:30:40.328Z,10.09
2023-02-04T03:33:08.691Z,10.06
2023-02-04T03:35:35.810Z,10.04
2023-02-04T03:38:02.724Z,10.03
2023-02-04T03:40:30.107Z,9.98
2023-02-04T03:42:59.638Z,9.93
2023-02-04T03:45:28.520Z,9.89
2023-02-04T03:47:59.496Z,9.86
2023-02-04T03:50:27.805Z,9.86
2023-02-04T03:52:54.773Z,9.87
2023-02-04T03:55:21.820Z,9.91
2023-02-04T03:57:48.753Z,9.93
2023-02-04T04:00:16.070Z,9.95
2023-02-04T04:02:42.959Z,9.96
2023-02-04T04:05:11.472Z,9.95
2023-02-04T04:07:39.727Z,9.93
2023-02-04T04:10:07.573Z,9.94
2023-02-04T04:12:34.593Z,9.94
2023-02-04T04:15:01.592Z,9.95
2023-02-04T04:17:28.567Z,9.95
2023-02-04T04:19:55.463Z,9.98
2023-02-04T04:22:22.364Z,9.99
2023-02-04T04:24:50.589Z,10.02
2023-02-04T04:27:17.548Z,10.02
2023-02-04T04:29:44.469Z,10.05
2023-02-04T04:32:11.402Z,10.09
2023-02-04T04:34:38.388Z,10.08
2023-02-04T04:37:05.301Z,10.02
2023-02-04T04:39:32.240Z,9.92
2023-02-04T04:42:00.414Z,9.88
2023-02-04T04:44:27.277Z,9.82
2023-02-04T04:46:54.608Z,9.75
2023-02-04T04:49:21.614Z,9.69
2023-02-04T04:51:48.509Z,9.69
2023-02-04T04:54:15.471Z,9.71
2023-02-04T04:56:42.338Z,9.74
2023-02-04T04:59:10.534Z,9.77
2023-02-04T05:01:37.481Z,9.80
2023-02-04T05:04:04.711Z,9.84
2023-02-04T05:06:31.587Z,9.86
2023-02-04T05:08:58.535Z,9.87
2023-02-04T05:11:25.425Z,9.90
2023-02-04T05:13:52.455Z,9.89
2023-02-04T05:16:20.720Z,9.87
2023-02-04T05:18:47.627Z,9.87
2023-02-04T05:21:14.482Z,9.89
2023-02-04T05:23:41.399Z,9.90
2023-02-04T05:26:08.323Z,9.87
2023-02-04T05:28:35.176Z,9.87
2023-02-04T05:31:02.717Z,9.87
2023-02-04T05:33:30.900Z,9.84
2023-02-04T05:35:57.760Z,9.80
2023-02-04T05:38:24.611Z,9.79
2023-02-04T05:40:51.465Z,9.79
2023-02-04T05:43:18.379Z,9.74
2023-02-04T05:45:45.276Z,9.68
2023-02-04T05:48:12.239Z,9.65
2023-02-04T05:50:40.517Z,9.62
2023-02-04T05:53:07.418Z,9.58
2023-02-04T05:55:34.261Z,9.53
2023-02-04T05:58:01.174Z,9.49
2023-02-04T06:00:28.016Z,9.46
2023-02-04T06:02:54.892Z,9.44
2023-02-04T06:05:23.064Z,9.43
2023-02-04T06:07:51.281Z,9.46
2023-02-04T06:10:18.429Z,9.50
2023-02-04T06:12:45.268Z,9.55
2023-02-04T06:15:12.929Z,9.59
2023-02-04T06:17:39.933Z,9.60
2023-02-04T06:20:08.780Z,9.57
2023-02-04T06:22:35.619Z,9.52
2023-02-04T06:25:04.163Z,9.47
2023-02-04T06:27:31.082Z,9.43
2023-02-04T06:29:58.215Z,9.39
2023-02-04T06:32:25.166Z,9.35
2023-02-04T06:34:52.050Z,9.35
2023-02-04T06:37:18.957Z,9.33
2023-02-04T06:39:45.892Z,9.30
2023-02-04T06:42:14.159Z,9.24
2023-02-04T06:44:41.019Z,9.17
2023-02-04T06:47:08.058Z,9.10
2023-02-04T06:49:34.919Z,9.02
2023-02-04T06:52:01.836Z,8.97
2023-02-04T06:54:28.691Z,8.93
2023-02-04T06:56:55.521Z,8.90
2023-02-04T06:59:25.266Z,8.85
2023-02-04T07:01:52.143Z,8.80
2023-02-04T07:04:18.982Z,8.76
2023-02-04T07:06:45.821Z,8.73
2023-02-04T07:09:12.757Z,8.72
2023-02-04T07:11:39.632Z,8.73
2023-02-04T07:14:06.493Z,8.75
2023-02-04T07:16:34.672Z,8.78
2023-02-04T07:19:01.558Z,8.83
2023-02-04T07:21:28.429Z,8.89
2023-02-04T07:23:55.327Z,8.92
2023-02-04T07:26:22.539Z,8.95
2023-02-04T07:28:49.426Z,8.99
2023-02-04T07:31:16.333Z,9.04
2023-02-04T07:33:44.615Z,9.08
2023-02-04T07:36:11.563Z,9.08
2023-02-04T07:38:38.533Z,9.06
2023-02-04T07:41:05.859Z,9.02
2023-02-04T07:43:33.059Z,8.99
2023-02-04T07:45:59.933Z,8.93
2023-02-04T07:48:26.824Z,8.90
2023-02-04T07:50:55.035Z,8.88
2023-02-04T07:53:21.899Z,8.87
2023-02-04T07:55:48.827Z,8.85
2023-02-04T07:58:15.644Z,8.87
2023-02-04T08:00:42.553Z,8.84
2023-02-04T08:03:09.473Z,8.84
2023-02-04T08:05:36.401Z,8.87
2023-02-04T08:08:04.850Z,8.89
2023-02-04T08:10:32.042Z,8.93
2023-02-04T08:12:59.025Z,8.96
2023-02-04T08:15:25.965Z,9.02
2023-02-04T08:17:52.855Z,9.11
2023-02-04T08:20:19.895Z,9.21
2023-02-04T08:22:46.845Z,9.30
2023-02-04T08:25:15.860Z,9.38
2023-02-04T08:27:42.764Z,9.47
2023-02-04T08:30:11.752Z,9.57
2023-02-04T08:32:39.272Z,9.61
2023-02-04T08:35:07.582Z,9.67
2023-02-04T08:37:34.660Z,9.74
2023-02-04T08:40:01.643Z,9.87
2023-02-04T08:42:29.997Z,9.97
2023-02-04T08:44:56.936Z,10.05
2023-02-04T08:47:23.763Z,10.14
2023-02-04T08:49:50.651Z,10.20
2023-02-04T08:52:17.583Z,10.25
2023-02-04T08:54:44.544Z,10.32
2023-02-04T08:57:11.477Z,10.35
2023-02-04T08:59:39.686Z,10.35
2023-02-04T09:02:06.583Z,10.42
2023-02-04T09:04:33.915Z,10.52
2023-02-04T09:07:00.839Z,10.68
2023-02-04T09:09:27.710Z,10.86
2023-02-04T09:11:54.611Z,11.00
2023-02-04T09:14:21.568Z,11.09
2023-02-04T09:16:49.731Z,11.18
2023-02-04T09:19:19.084Z,11.25
2023-02-04T09:21:46.030Z,11.28
2023-02-04T09:24:12.868Z,11.33
2023-02-04T09:26:39.773Z,11.39
2023-02-04T09:29:06.605Z,11.46
2023-02-04T09:31:33.571Z,11.50
2023-02-04T09:34:01.861Z,11.53
2023-02-04T09:36:30.480Z,11.51
2023-02-04T09:38:57.474Z,11.50
2023-02-04T09:41:24.472Z,11.40
2023-02-04T09:43:51.489Z,11.29
2023-02-04T09:46:23.680Z,11.20
2023-02-04T09:48:51.316Z,11.15
2023-02-04T09:51:25.212Z,11.20
2023-02-04T09:53:55.405Z,11.38
2023-02-04T09:56:28.147Z,11.50
2023-02-04T09:58:55.011Z,11.58
2023-02-04T10:01:22.054Z,11.79
2023-02-04T10:03:51.334Z,12.33
2023-02-04T10:06:22.254Z,12.93
2023-02-04T10:08:51.932Z,13.42
2023-02-04T10:11:22.120Z,13.99
2023-02-04T10:13:52.352Z,14.53
2023-02-04T10:16:29.569Z,14.89
2023-02-04T10:18:59.253Z,15.28
2023-02-04T10:21:32.091Z,15.79
2023-02-04T10:24:02.575Z,16.27
2023-02-04T10:26:32.336Z,16.53
2023-02-04T10:29:01.315Z,16.96
2023-02-04T10:31:33.061Z,17.47
2023-02-04T10:34:11.944Z,17.92
2023-02-04T10:36:43.043Z,18.05
2023-02-04T10:39:16.914Z,17.98
2023-02-04T10:41:50.014Z,17.97
2023-02-04T10:44:20.962Z,17.95
2023-02-04T10:46:48.410Z,17.95
2023-02-04T10:49:21.923Z,17.94
2023-02-04T10:51:52.755Z,17.95
2023-02-04T10:54:31.969Z,17.92
2023-02-04T10:57:02.988Z,17.92
2023-02-04T10:59:30.283Z,17.94
2023-02-04T11:02:00.689Z,18.00
2023-02-04T11:04:28.755Z,18.09
2023-02-04T11:06:56.948Z,18.30
2023-02-04T11:09:23.910Z,18.47
2023-02-04T11:11:51.631Z,18.16
2023-02-04T11:14:28.537Z,17.62
2023-02-04T11:17:01.418Z,17.22
2023-02-04T11:19:36.587Z,17.02
2023-02-04T11:22:22.675Z,17.24
2023-02-04T11:24:50.688Z,17.42
2023-02-04T11:27:24.962Z,17.73
2023-02-04T11:29:52.361Z,18.11
2023-02-04T11:32:35.021Z,18.44
2023-02-04T11:35:24.669Z,18.66
2023-02-04T11:37:54.576Z,18.76
2023-02-04T11:40:32.407Z,18.92
2023-02-04T11:43:03.467Z,19.17
2023-02-04T11:45:34.082Z,19.23
2023-02-04T11:48:04.199Z,19.29
2023-02-04T11:50:34.758Z,19.24
2023-02-04T11:53:03.055Z,19.05
2023-02-04T11:55:34.648Z,18.61
2023-02-04T11:58:01.704Z,18.30
2023-02-04T12:00:32.057Z,18.10
2023-02-04T12:03:01.748Z,18.05
2023-02-04T12:05:40.744Z,18.08
2023-02-04T12:08:23.980Z,18.20
2023-02-04T12:11:00.545Z,18.01
2023-02-04T12:13:30.733Z,17.82
2023-02-04T12:16:04.300Z,17.82
2023-02-04T12:18:34.514Z,17.72
2023-02-04T12:21:04.280Z,17.37
2023-02-04T12:23:32.904Z,16.96
2023-02-04T12:26:00.129Z,16.66
2023-02-04T12:28:28.844Z,16.47
2023-02-04T12:30:56.543Z,16.45
2023-02-04T12:33:23.629Z,16.43
2023-02-04T12:35:50.769Z,16.38
2023-02-04T12:38:19.189Z,16.36
2023-02-04T12:40:47.888Z,16.33
2023-02-04T12:43:14.729Z,16.32
2023-02-04T12:45:45.623Z,16.31
2023-02-04T12:48:13.901Z,16.31
2023-02-04T12:50:41.167Z,16.26
2023-02-04T12:53:08.784Z,16.19
2023-02-04T12:55:36.317Z,16.09
2023-02-04T12:58:04.912Z,15.73
2023-02-04T13:00:31.982Z,15.43
2023-02-04T13:02:59.030Z,15.19
2023-02-04T13:05:27.077Z,15.04
2023-02-04T13:07:54.106Z,14.87
2023-02-04T13:10:21.805Z,14.84
2023-02-04T13:12:48.933Z,14.84
2023-02-04T13:15:17.298Z,14.81
2023-02-04T13:17:44.273Z,14.67
2023-02-04T13:20:12.828Z,14.65
2023-02-04T13:22:39.846Z,14.72
2023-02-04T13:25:07.149Z,14.71
2023-02-04T13:27:34.117Z,14.64
2023-02-04T13:30:00.978Z,14.46
2023-02-04T13:32:29.195Z,14.26
2023-02-04T13:34:56.102Z,14.17
2023-02-04T13:37:23.133Z,14.13
2023-02-04T13:39:49.989Z,14.04
2023-02-04T13:42:16.894Z,13.90
2023-02-04T13:44:44.281Z,13.73
2023-02-04T13:47:11.335Z,13.63
2023-02-04T13:49:39.508Z,13.56
2023-02-04T13:52:06.407Z,13.56
2023-02-04T13:54:33.712Z,13.43
2023-02-04T13:57:01.105Z,13.31
2023-02-04T13:59:27.943Z,13.28
2023-02-04T14:01:54.955Z,13.26
2023-02-04T14:04:21.906Z,13.23
2023-02-04T14:06:50.218Z,13.21
2023-02-04T14:09:17.171Z,13.27
2023-02-04T14:11:44.316Z,13.34
2023-02-04T14:14:11.232Z,13.27
2023-02-04T14:16:38.260Z,13.28
2023-02-04T14:19:06.043Z,13.32
2023-02-04T14:21:33.025Z,13.20
2023-02-04T14:24:01.411Z,13.20
2023-02-04T14:26:28.350Z,13.14
2023-02-04T14:28:55.230Z,13.08
2023-02-04T14:31:22.157Z,13.05
2023-02-04T14:33:50.464Z,13.05
2023-02-04T14:36:17.591Z,12.99
2023-02-04T14:38:44.474Z,12.96
2023-02-04T14:41:16.196Z,12.98
2023-02-04T14:43:43.169Z,12.93
2023-02-04T14:46:10.160Z,12.93
2023-02-04T14:48:37.209Z,12.92
2023-02-04T14:51:05.361Z,12.84
2023-02-04T14:53:32.212Z,12.75
2023-02-04T14:55:59.104Z,12.67
2023-02-04T14:58:28.065Z,12.54
2023-02-04T15:00:55.502Z,12.43
2023-02-04T15:03:22.936Z,12.35
2023-02-04T15:05:49.864Z,12.33
2023-02-04T15:08:16.796Z,12.29
2023-02-04T15:10:43.670Z,12.33
2023-02-04T15:13:11.214Z,12.28
2023-02-04T15:15:39.414Z,12.24
2023-02-04T15:18:06.604Z,12.22
2023-02-04T15:20:33.763Z,12.17
2023-02-04T15:23:01.080Z,12.08
2023-02-04T15:25:28.198Z,11.97
2023-02-04T15:27:55.229Z,11.89
2023-02-04T15:30:22.691Z,11.78
2023-02-04T15:32:50.980Z,11.68
2023-02-04T15:35:17.952Z,11.65
2023-02-04T15:37:44.808Z,11.65
2023-02-04T15:40:12.142Z,11.68
2023-02-04T15:42:39.082Z,11.64
2023-02-04T15:45:07.259Z,11.59
2023-02-04T15:47:34.284Z,11.52
2023-02-04T15:50:05.800Z,11.49
2023-02-04T15:52:32.669Z,11.43
2023-02-04T15:54:59.763Z,11.42
2023-02-04T15:57:26.610Z,11.42
2023-02-04T15:59:53.639Z,11.42
2023-02-04T16:02:20.586Z,11.40
2023-02-04T16:04:47.878Z,11.40
2023-02-04T16:07:16.289Z,11.40
2023-02-04T16:09:43.743Z,11.40
2023-02-04T16:12:10.695Z,11.36
2023-02-04T16:14:37.585Z,11.33
2023-02-04T16:17:06.837Z,11.31
2023-02-04T16:19:33.775Z,11.31
2023-02-04T16:22:00.708Z,11.29
2023-02-04T16:24:28.879Z,11.27
2023-02-04T16:26:55.775Z,11.24
2023-02-04T16:29:22.717Z,11.24
2023-02-04T16:31:49.644Z,11.23
2023-02-04T16:34:16.522Z,11.28
2023-02-04T16:36:43.379Z,11.28
2023-02-04T16:39:10.241Z,11.30
2023-02-04T16:41:38.517Z,11.33
2023-02-04T16:44:05.364Z,11.34
2023-02-04T16:46:33.679Z,11.34
2023-02-04T16:49:01.191Z,11.30
2023-02-04T16:51:29.045Z,11.25
2023-02-04T16:53:55.933Z,11.24
2023-02-04T16:56:22.954Z,11.24
2023-02-04T16:58:51.134Z,11.25
2023-02-04T17:01:18.068Z,11.25
2023-02-04T17:03:46.000Z,11.26
2023-02-04T17:06:16.250Z,11.28
2023-02-04T17:08:43.316Z,11.29
2023-02-04T17:11:28.734Z,11.30
2023-02-04T17:13:57.669Z,11.30
2023-02-04T17:16:24.762Z,11.31
2023-02-04T17:18:51.723Z,11.32
2023-02-04T17:21:18.615Z,11.33
2023-02-04T17:23:45.525Z,11.37
2023-02-04T17:26:12.468Z,11.37
2023-02-04T17:28:39.801Z,11.38
2023-02-04T17:31:08.461Z,11.38
2023-02-04T17:33:35.602Z,11.38
2023-02-04T17:36:03.836Z,11.37
2023-02-04T17:38:31.560Z,11.37
2023-02-04T17:40:58.557Z,11.35
2023-02-04T17:43:25.909Z,11.36
2023-02-04T17:45:52.901Z,11.34
2023-02-04T17:48:21.466Z,11.33
2023-02-04T17:50:48.413Z,11.32
2023-02-04T17:53:15.330Z,11.29
2023-02-04T17:55:42.185Z,11.26
2023-02-04T17:58:15.189Z,11.24
2023-02-04T18:00:45.752Z,11.25
2023-02-04T18:03:15.297Z,11.26
2023-02-04T18:05:46.984Z,11.28
2023-02-04T18:08:18.702Z,11.27
2023-02-04T18:10:50.474Z,11.27
2023-02-04T18:13:20.109Z,11.29
2023-02-04T18:15:51.069Z,11.31
2023-02-04T18:18:26.186Z,11.28
2023-02-04T18:21:00.116Z,11.27
2023-02-04T18:23:30.584Z,11.29
2023-02-04T18:26:11.377Z,11.30
2023-02-04T18:28:44.377Z,11.29
2023-02-04T18:31:29.892Z,11.26
2023-02-04T18:33:57.201Z,11.25
2023-02-04T18:36:27.387Z,11.22
2023-02-04T18:38:55.303Z,11.19
2023-02-04T18:41:33.602Z,11.12
2023-02-04T18:44:17.659Z,11.04
2023-02-04T18:46:47.953Z,11.02
2023-02-04T18:49:25.788Z,10.95
2023-02-04T18:51:55.209Z,10.93
2023-02-04T18:54:30.856Z,10.88
2023-02-04T18:57:31.144Z,10.81
2023-02-04T19:00:27.624Z,10.71
2023-02-04T19:02:59.150Z,10.67
2023-02-04T19:05:34.486Z,10.60
2023-02-04T19:08:40.392Z,10.49
2023-02-04T19:11:33.017Z,10.43
2023-02-04T19:14:00.253Z,10.41
2023-02-04T19:16:36.681Z,10.35
2023-02-04T19:19:27.423Z,10.29
2023-02-04T19:21:54.327Z,10.26
2023-02-04T19:24:27.649Z,10.22
2023-02-04T19:26:57.109Z,10.20
2023-02-04T19:29:41.737Z,10.15
2023-02-04T19:32:28.457Z,10.11
2023-02-04T19:35:01.009Z,10.15
2023-02-04T19:37:39.080Z,10.15
2023-02-04T19:40:27.642Z,10.14
2023-02-04T19:43:02.033Z,10.15
2023-02-04T19:45:28.932Z,10.13
2023-02-04T19:47:57.411Z,10.11
2023-02-04T19:50:28.197Z,10.07
2023-02-04T19:53:00.713Z,10.05
2023-02-04T19:55:37.218Z,10.01
2023-02-04T19:58:17.747Z,9.94
2023-02-04T20:00:57.405Z,9.93
2023-02-04T20:03:41.916Z,9.87
2023-02-04T20:06:30.043Z,9.82
2023-02-04T20:09:04.463Z,9.82
2023-02-04T20:11:54.002Z,9.77
2023-02-04T20:14:49.934Z,9.72
2023-02-04T20:17:34.203Z,9.69
2023-02-04T20:20:24.642Z,9.60
2023-02-04T20:22:54.741Z,9.57
2023-02-04T20:25:41.977Z,9.48
2023-02-04T20:28:38.419Z,9.40
2023-02-04T20:31:25.694Z,9.35
2023-02-04T20:33:55.958Z,9.36
2023-02-04T20:36:42.025Z,9.35
2023-02-04T20:39:35.942Z,9.32
2023-02-04T20:42:37.110Z,9.23
2023-02-04T20:45:28.497Z,9.12
2023-02-04T20:47:59.968Z,9.05
2023-02-04T20:50:38.326Z,8.94
2023-02-04T20:53:24.919Z,8.93
2023-02-04T20:55:55.129Z,8.99
2023-02-04T20:58:26.641Z,9.03
2023-02-04T21:00:55.980Z,9.02
2023-02-04T21:03:27.454Z,8.99
2023-02-04T21:05:57.765Z,8.96
2023-02-04T21:08:29.608Z,8.98
2023-02-04T21:11:01.988Z,8.95
2023-02-04T21:13:29.280Z,8.91
2023-02-04T21:15:57.847Z,8.88
2023-02-04T21:18:25.053Z,8.90
2023-02-04T21:20:51.910Z,8.95
2023-02-04T21:23:19.723Z,8.96
2023-02-04T21:25:48.127Z,8.95
2023-02-04T21:28:15.308Z,8.93
2023-02-04T21:30:42.551Z,8.93
2023-02-04T21:33:11.615Z,8.92
2023-02-04T21:35:39.466Z,8.89
2023-02-04T21:38:07.526Z,8.86
2023-02-04T21:40:37.569Z,8.84
2023-02-04T21:43:07.881Z,8.85
2023-02-04T21:45:36.803Z,8.80
2023-02-04T21:48:05.064Z,8.76
2023-02-04T21:50:33.849Z,8.77
2023-02-04T21:53:01.097Z,8.73
2023-02-04T21:55:28.906Z,8.72
2023-02-04T21:57:56.205Z,8.68
2023-02-04T22:00:24.374Z,8.63
2023-02-04T22:02:52.635Z,8.57
2023-02-04T22:05:21.097Z,8.55
2023-02-04T22:07:50.116Z,8.50
2023-02-04T22:10:22.993Z,8.43
2023-02-04T22:12:50.148Z,8.35
2023-02-04T22:15:17.572Z,8.33
2023-02-04T22:17:45.259Z,8.31
2023-02-04T22:20:15.616Z,8.30
2023-02-04T22:22:43.662Z,8.28
2023-02-04T22:25:14.211Z,8.25
2023-02-04T22:27:41.470Z,8.23
2023-02-04T22:30:12.042Z,8.26
2023-02-04T22:32:39.272Z,8.22
2023-02-04T22:35:09.930Z,8.16
2023-02-04T22:37:37.217Z,8.11
2023-02-04T22:40:05.828Z,8.09
2023-02-04T22:42:34.142Z,8.07
2023-02-04T22:45:02.517Z,8.02
2023-02-04T22:47:30.143Z,8.00
2023-02-04T22:49:57.081Z,8.01
2023-02-04T22:52:24.352Z,8.00
2023-02-04T22:54:51.533Z,7.98
2023-02-04T22:57:18.549Z,8.00
2023-02-04T22:59:46.865Z,8.00
2023-02-04T23:02:14.088Z,7.98
2023-02-04T23:04:43.909Z,7.89
2023-02-04T23:07:12.116Z,7.83
2023-02-04T23:09:39.786Z,7.78
2023-02-04T23:12:12.923Z,7.69
2023-02-04T23:14:41.738Z,7.60
2023-02-04T23:17:10.702Z,7.54
2023-02-04T23:19:38.080Z,7.51
2023-02-04T23:22:07.166Z,7.44
2023-02-04T23:24:35.086Z,7.41
2023-02-04T23:27:03.061Z,7.38
2023-02-04T23:29:35.357Z,7.33
2023-02-04T23:32:03.984Z,7.26
2023-02-04T23:34:32.518Z,7.20
2023-02-04T23:36:59.536Z,7.19
2023-02-04T23:39:27.019Z,7.21
2023-02-04T23:41:53.930Z,7.25
2023-02-04T23:44:21.069Z,7.25
2023-02-04T23:46:48.063Z,7.25
2023-02-04T23:49:15.592Z,7.24
2023-02-04T23:51:44.128Z,7.22
2023-02-04T23:54:11.225Z,7.20
2023-02-04T23:56:38.128Z,7.24
2023-02-04T23:59:05.717Z,7.21
